Time;durP1;ratioP1;P1;durP2;ratioP2;P2;SDS_P1;SDS_P2;PMS_P1;PMS_P2;Temp;Humidity;BMP_temperature;BMP_pressure;BME280_temperature;BME280_humidity;BME280_pressure;Samples;Min_cycle;Max_cycle;Signal;HPM_P1;HPM_P2
2023/01/22 00:01:29;;;;;;;3.80;1.20;;;;;;;;;;4912288;29;20417;-65
2023/01/22 00:04:00;;;;;;;1.25;0.80;;;;;;;;;;4896683;29;20056;-65
2023/01/22 00:06:53;;;;;;;1.65;0.80;;;;;;;;;;4912080;29;20047;-64
2023/01/22 00:09:23;;;;;;;2.03;0.93;;;;;;;;;;4912579;29;20559;-63
2023/01/22 00:11:54;;;;;;;1.98;0.85;;;;;;;;;;4912307;29;20059;-63
2023/01/22 00:14:24;;;;;;;1.67;0.70;;;;;;;;;;4908033;29;20051;-64
2023/01/22 00:16:55;;;;;;;9.32;1.20;;;;;;;;;;4950895;28;20066;-65
2023/01/22 00:19:25;;;;;;;1.40;0.75;;;;;;;;;;4989165;28;20062;-63
2023/01/22 00:21:55;;;;;;;2.33;1.15;;;;;;;;;;4973237;28;20527;-64
2023/01/22 00:24:27;;;;;;;2.83;0.70;;;;;;;;;;4989104;28;20054;-63
2023/01/22 00:26:56;;;;;;;1.60;0.60;;;;;;;;;;4988565;28;20142;-63
2023/01/22 00:29:26;;;;;;;1.30;0.70;;;;;;;;;;4960745;28;20045;-64
2023/01/22 00:31:57;;;;;;;3.45;0.68;;;;;;;;;;4950341;29;20066;-64
2023/01/22 00:34:28;;;;;;;1.63;0.80;;;;;;;;;;4918899;29;20056;-64
2023/01/22 00:36:58;;;;;;;3.22;0.70;;;;;;;;;;4950565;29;20571;-63
2023/01/22 00:39:28;;;;;;;1.20;0.90;;;;;;;;;;4904892;29;20472;-63
2023/01/22 00:41:59;;;;;;;4.35;0.80;;;;;;;;;;4874680;29;20421;-64
2023/01/22 00:44:29;;;;;;;2.53;0.70;;;;;;;;;;4854535;29;20060;-63
2023/01/22 00:46:59;;;;;;;1.60;0.68;;;;;;;;;;4874576;29;20053;-64
2023/01/22 00:49:29;;;;;;;2.30;0.82;;;;;;;;;;4874301;29;20056;-64
2023/01/22 00:51:59;;;;;;;3.15;0.90;;;;;;;;;;4891928;29;20056;-64
2023/01/22 00:54:29;;;;;;;4.10;0.90;;;;;;;;;;4911973;29;20083;-65
2023/01/22 00:57:00;;;;;;;1.95;0.80;;;;;;;;;;4927010;29;20048;-63
2023/01/22 00:59:31;;;;;;;1.02;0.52;;;;;;;;;;4931008;29;20048;-63
2023/01/22 01:02:01;;;;;;;1.73;0.70;;;;;;;;;;4930808;29;20048;-63
2023/01/22 01:04:31;;;;;;;1.75;0.70;;;;;;;;;;4911753;29;20052;-63
2023/01/22 01:07:01;;;;;;;1.38;0.68;;;;;;;;;;4896958;29;20060;-64
2023/01/22 01:09:31;;;;;;;2.55;0.82;;;;;;;;;;4920643;29;20068;-63
2023/01/22 01:12:02;;;;;;;2.58;0.80;;;;;;;;;;4930964;29;20060;-63
2023/01/22 01:14:32;;;;;;;3.63;0.90;;;;;;;;;;4911881;29;20043;-63
2023/01/22 01:17:03;;;;;;;1.02;0.52;;;;;;;;;;4884265;29;20124;-65
2023/01/22 01:19:34;;;;;;;9.40;5.05;;;;;;;;;;4921431;29;20533;-64
2023/01/22 01:22:05;;;;;;;4.45;2.00;;;;;;;;;;4903195;29;20045;-63
2023/01/22 01:24:36;;;;;;;3.45;1.05;;;;;;;;;;4893132;29;20482;-63
2023/01/22 01:27:05;;;;;;;2.58;0.80;;;;;;;;;;4892988;29;20064;-63
2023/01/22 01:29:35;;;;;;;1.80;0.70;;;;;;;;;;4892440;29;20053;-63
2023/01/22 01:32:06;;;;;;;3.38;1.08;;;;;;;;;;4892835;29;20064;-65
2023/01/22 01:34:35;;;;;;;1.63;0.70;;;;;;;;;;4920375;29;20062;-64
2023/01/22 01:37:05;;;;;;;4.85;0.80;;;;;;;;;;4922085;29;20059;-64
2023/01/22 01:39:36;;;;;;;2.85;1.08;;;;;;;;;;4920281;29;20052;-63
2023/01/22 01:42:08;;;;;;;2.22;0.90;;;;;;;;;;4939561;29;20059;-63
2023/01/22 01:44:42;;;;;;;3.70;0.70;;;;;;;;;;4910890;29;20413;-63
2023/01/22 01:47:32;;;;;;;4.85;0.90;;;;;;;;;;4911464;29;20469;-63
2023/01/22 01:50:02;;;;;;;1.73;1.00;;;;;;;;;;4895668;29;20048;-63
2023/01/22 01:52:33;;;;;;;3.75;0.63;;;;;;;;;;4904373;29;20052;-63
2023/01/22 01:55:04;;;;;;;2.55;0.77;;;;;;;;;;4856714;29;20060;-63
2023/01/22 01:57:35;;;;;;;2.38;1.05;;;;;;;;;;4862302;29;20077;-63
2023/01/22 02:00:09;;;;;;;4.53;1.00;;;;;;;;;;4879193;29;20061;-64
2023/01/22 02:02:42;;;;;;;2.00;0.82;;;;;;;;;;4925849;29;20055;-64
2023/01/22 02:05:13;;;;;;;1.88;0.98;;;;;;;;;;4914565;29;20100;-64
2023/01/22 02:07:43;;;;;;;4.63;0.93;;;;;;;;;;4914813;29;20421;-63
2023/01/22 02:10:13;;;;;;;4.38;1.05;;;;;;;;;;4933330;29;20487;-64
2023/01/22 02:12:44;;;;;;;3.92;0.82;;;;;;;;;;4920315;29;20052;-63
2023/01/22 02:15:15;;;;;;;3.75;0.80;;;;;;;;;;4914359;29;20048;-64
2023/01/22 02:17:46;;;;;;;1.55;0.60;;;;;;;;;;4930149;29;20172;-63
2023/01/22 02:20:22;;;;;;;1.52;0.70;;;;;;;;;;4896758;29;20052;-66
2023/01/22 02:22:56;;;;;;;2.00;0.95;;;;;;;;;;4943817;28;20059;-63
2023/01/22 02:25:46;;;;;;;1.42;0.75;;;;;;;;;;4933406;29;20101;-63
2023/01/22 02:28:16;;;;;;;2.58;0.82;;;;;;;;;;4919210;29;20052;-63
2023/01/22 02:30:52;;;;;;;2.03;0.88;;;;;;;;;;4924319;29;20055;-63
2023/01/22 02:33:43;;;;;;;4.93;0.90;;;;;;;;;;4963479;28;20055;-63
2023/01/22 02:36:15;;;;;;;2.08;0.82;;;;;;;;;;4951502;29;20062;-64
2023/01/22 02:38:45;;;;;;;1.67;0.70;;;;;;;;;;4920303;29;20062;-63
2023/01/22 02:41:16;;;;;;;2.10;0.73;;;;;;;;;;4933302;29;20070;-63
2023/01/22 02:43:47;;;;;;;3.10;0.73;;;;;;;;;;4897424;29;20112;-65
2023/01/22 02:46:20;;;;;;;6.13;1.00;;;;;;;;;;4895153;29;20052;-66
2023/01/22 02:48:51;;;;;;;2.70;0.70;;;;;;;;;;4861780;29;20053;-64
2023/01/22 02:51:21;;;;;;;1.95;0.82;;;;;;;;;;4854396;29;20062;-63
2023/01/22 02:53:52;;;;;;;1.60;0.65;;;;;;;;;;4838893;29;20051;-63
2023/01/22 02:56:23;;;;;;;5.18;0.80;;;;;;;;;;4839214;29;20057;-66
2023/01/22 02:58:53;;;;;;;1.70;0.50;;;;;;;;;;4823465;29;20050;-63
2023/01/22 03:01:24;;;;;;;0.90;0.50;;;;;;;;;;4857314;29;20053;-64
2023/01/22 03:03:57;;;;;;;1.83;0.63;;;;;;;;;;4813571;29;20055;-63
2023/01/22 03:06:29;;;;;;;2.13;0.60;;;;;;;;;;4820667;29;20109;-64
2023/01/22 03:09:00;;;;;;;1.00;0.40;;;;;;;;;;4825713;29;20555;-64
2023/01/22 03:11:37;;;;;;;2.10;0.52;;;;;;;;;;4828181;29;20054;-64
2023/01/22 03:22:40;;;;;;;0.98;0.50;;;;;;;;;;4823270;29;20065;-65
2023/01/22 03:25:11;;;;;;;1.60;0.80;;;;;;;;;;4856975;29;20138;-63
2023/01/22 03:28:07;;;;;;;1.02;0.63;;;;;;;;;;4838513;29;20053;-64
2023/01/22 03:30:34;;;;;;;1.95;0.43;;;;;;;;;;4810164;29;20501;-64
2023/01/22 03:33:05;;;;;;;2.75;0.50;;;;;;;;;;4800722;29;20050;-64
2023/01/22 03:35:35;;;;;;;1.67;0.60;;;;;;;;;;4785172;29;20063;-64
2023/01/22 03:38:13;;;;;;;1.95;0.70;;;;;;;;;;4800307;29;20059;-64
2023/01/22 03:40:44;;;;;;;1.50;0.52;;;;;;;;;;4804191;29;20054;-65
2023/01/22 03:43:14;;;;;;;1.02;0.65;;;;;;;;;;4783704;29;20047;-64
2023/01/22 03:45:45;;;;;;;2.50;0.60;;;;;;;;;;4782280;29;20055;-63
2023/01/22 03:48:19;;;;;;;1.00;0.65;;;;;;;;;;4785155;29;20412;-64
2023/01/22 03:50:50;;;;;;;2.47;0.50;;;;;;;;;;4800555;29;20105;-64
2023/01/22 03:53:20;;;;;;;1.98;0.90;;;;;;;;;;4771205;29;20065;-64
2023/01/22 03:55:57;;;;;;;1.27;0.57;;;;;;;;;;4785345;29;20067;-64
2023/01/22 03:58:29;;;;;;;1.10;0.60;;;;;;;;;;4797903;29;20062;-64
2023/01/22 04:01:02;;;;;;;3.22;0.70;;;;;;;;;;4814957;29;20065;-63
2023/01/22 04:03:33;;;;;;;2.63;0.52;;;;;;;;;;4801304;29;20054;-63
2023/01/22 04:06:05;;;;;;;2.80;0.75;;;;;;;;;;4837755;29;20431;-63
2023/01/22 04:08:37;;;;;;;4.03;0.60;;;;;;;;;;4804435;29;20051;-65
2023/01/22 04:11:08;;;;;;;3.05;0.70;;;;;;;;;;4804491;29;20104;-64
2023/01/22 04:13:40;;;;;;;1.77;0.68;;;;;;;;;;4808159;29;20062;-65
2023/01/22 04:16:12;;;;;;;1.67;0.73;;;;;;;;;;4844890;29;20054;-63
2023/01/22 04:19:05;;;;;;;0.90;0.50;;;;;;;;;;4837623;29;20741;-64
2023/01/22 04:21:55;;;;;;;2.45;0.60;;;;;;;;;;4864647;29;20057;-63
2023/01/22 04:24:26;;;;;;;1.20;0.47;;;;;;;;;;4853429;29;20053;-64
2023/01/22 04:26:56;;;;;;;1.08;0.60;;;;;;;;;;4856097;29;20140;-63
2023/01/22 04:29:26;;;;;;;2.92;0.80;;;;;;;;;;4837040;29;20069;-64
2023/01/22 04:31:55;;;;;;;3.42;0.70;;;;;;;;;;4842752;29;20484;-63
2023/01/22 04:34:45;;;;;;;1.92;0.80;;;;;;;;;;4874529;29;20065;-63
2023/01/22 04:37:36;;;;;;;3.00;0.60;;;;;;;;;;4854380;29;20065;-63
2023/01/22 04:40:07;;;;;;;1.08;0.60;;;;;;;;;;4901520;29;20049;-63
2023/01/22 04:42:37;;;;;;;4.07;0.82;;;;;;;;;;4855237;29;20058;-63
2023/01/22 04:45:08;;;;;;;2.35;0.75;;;;;;;;;;4873829;29;20049;-63
2023/01/22 04:47:47;;;;;;;1.67;0.75;;;;;;;;;;4874080;29;20052;-63
2023/01/22 04:50:23;;;;;;;3.47;0.60;;;;;;;;;;4886033;29;20061;-63
2023/01/22 04:52:55;;;;;;;3.38;0.80;;;;;;;;;;4856893;29;20049;-64
2023/01/22 04:55:26;;;;;;;2.65;0.80;;;;;;;;;;4861233;29;20065;-63
2023/01/22 04:58:06;;;;;;;3.03;0.60;;;;;;;;;;4893346;29;20055;-63
2023/01/22 05:00:37;;;;;;;3.17;0.95;;;;;;;;;;4950127;29;20058;-63
2023/01/22 05:03:11;;;;;;;1.88;0.60;;;;;;;;;;4930773;29;20051;-63
2023/01/22 05:05:42;;;;;;;1.50;0.63;;;;;;;;;;4894844;29;20056;-64
2023/01/22 05:08:12;;;;;;;3.15;0.80;;;;;;;;;;4911491;29;20056;-65
2023/01/22 05:10:44;;;;;;;4.85;1.00;;;;;;;;;;4927614;29;20048;-63
2023/01/22 05:13:21;;;;;;;2.13;0.55;;;;;;;;;;4964581;28;20523;-64
2023/01/22 05:15:52;;;;;;;1.75;1.05;;;;;;;;;;4988257;28;20410;-64
2023/01/22 05:18:24;;;;;;;1.90;0.70;;;;;;;;;;4940026;28;20523;-64
2023/01/22 05:20:54;;;;;;;1.92;0.85;;;;;;;;;;4933776;29;20050;-64
2023/01/22 05:23:28;;;;;;;1.75;0.70;;;;;;;;;;4953894;28;20411;-64
2023/01/22 05:25:58;;;;;;;2.78;1.27;;;;;;;;;;4968632;28;20507;-63
2023/01/22 05:28:41;;;;;;;2.45;0.70;;;;;;;;;;4924187;28;20406;-63
2023/01/22 05:31:32;;;;;;;2.85;0.65;;;;;;;;;;4911236;29;20063;-64
2023/01/22 05:34:05;;;;;;;1.60;0.77;;;;;;;;;;4919413;29;20055;-63
2023/01/22 05:36:35;;;;;;;3.97;0.80;;;;;;;;;;4900075;29;20045;-64
2023/01/22 05:39:16;;;;;;;2.70;0.80;;;;;;;;;;4879709;29;20049;-64
2023/01/22 05:41:48;;;;;;;3.90;0.95;;;;;;;;;;4914647;29;20056;-66
2023/01/22 05:44:18;;;;;;;1.75;0.50;;;;;;;;;;4919283;29;20528;-64
2023/01/22 05:46:52;;;;;;;2.25;0.75;;;;;;;;;;4892228;29;20053;-64
2023/01/22 05:49:41;;;;;;;3.95;0.70;;;;;;;;;;4878145;29;20057;-65
2023/01/22 05:52:14;;;;;;;2.42;0.82;;;;;;;;;;4915115;29;20048;-64
2023/01/22 05:54:45;;;;;;;1.98;0.80;;;;;;;;;;4899015;29;20079;-65
2023/01/22 05:57:15;;;;;;;1.40;0.98;;;;;;;;;;4880527;29;20386;-65
2023/01/22 05:59:46;;;;;;;3.10;0.68;;;;;;;;;;4886303;29;20061;-65
2023/01/22 06:02:16;;;;;;;2.58;0.85;;;;;;;;;;4898409;29;20505;-64
2023/01/22 06:04:46;;;;;;;1.35;0.77;;;;;;;;;;4951700;29;20051;-64
2023/01/22 06:07:24;;;;;;;1.98;0.70;;;;;;;;;;4923626;29;20503;-65
2023/01/22 06:09:54;;;;;;;4.85;0.82;;;;;;;;;;4915866;29;20047;-67
2023/01/22 06:12:24;;;;;;;3.38;0.82;;;;;;;;;;4960273;28;20054;-65
2023/01/22 06:14:56;;;;;;;2.55;0.85;;;;;;;;;;4991372;28;20057;-65
2023/01/22 06:17:26;;;;;;;4.43;0.88;;;;;;;;;;4942696;28;20065;-64
2023/01/22 06:20:00;;;;;;;2.95;0.80;;;;;;;;;;4948664;28;20051;-65
2023/01/22 06:22:33;;;;;;;5.63;0.98;;;;;;;;;;4968031;28;20055;-64
2023/01/22 06:25:03;;;;;;;1.65;0.73;;;;;;;;;;4925477;29;20048;-65
2023/01/22 06:27:54;;;;;;;2.55;1.02;;;;;;;;;;4914605;29;20079;-64
2023/01/22 06:30:24;;;;;;;2.80;1.00;;;;;;;;;;4945848;28;20072;-65
2023/01/22 06:32:55;;;;;;;6.55;0.88;;;;;;;;;;4933024;29;20162;-65
2023/01/22 06:35:25;;;;;;;5.43;1.00;;;;;;;;;;4919988;29;20048;-65
2023/01/22 06:37:55;;;;;;;2.55;0.80;;;;;;;;;;4919730;29;20059;-65
2023/01/22 06:40:25;;;;;;;2.78;0.90;;;;;;;;;;4933178;29;20078;-66
2023/01/22 06:42:59;;;;;;;2.80;0.85;;;;;;;;;;4932953;29;20048;-65
2023/01/22 06:45:29;;;;;;;3.70;0.80;;;;;;;;;;4898143;29;20540;-64
2023/01/22 06:48:04;;;;;;;4.50;1.00;;;;;;;;;;4931961;29;20067;-64
2023/01/22 06:50:35;;;;;;;3.75;0.98;;;;;;;;;;4893220;29;20057;-66
2023/01/22 06:53:05;;;;;;;2.88;1.02;;;;;;;;;;4894692;29;20503;-64
2023/01/22 06:55:35;;;;;;;2.50;1.17;;;;;;;;;;4887855;29;20054;-65
2023/01/22 06:58:05;;;;;;;3.40;1.05;;;;;;;;;;4833089;29;20057;-64
2023/01/22 07:00:36;;;;;;;2.95;0.77;;;;;;;;;;4857548;29;20503;-65
2023/01/22 07:03:08;;;;;;;1.80;0.90;;;;;;;;;;4925379;29;20570;-64
2023/01/22 07:05:38;;;;;;;1.58;0.82;;;;;;;;;;4895124;29;20722;-65
2023/01/22 07:08:08;;;;;;;3.53;1.10;;;;;;;;;;4904591;29;20067;-65
2023/01/22 07:10:38;;;;;;;5.00;1.00;;;;;;;;;;4913649;29;20052;-64
2023/01/22 07:13:09;;;;;;;2.67;1.10;;;;;;;;;;4933056;29;20500;-65
2023/01/22 07:15:39;;;;;;;4.45;1.08;;;;;;;;;;4963338;28;20061;-65
2023/01/22 07:18:10;;;;;;;4.32;0.70;;;;;;;;;;5011121;28;20199;-67
2023/01/22 07:20:41;;;;;;;1.38;0.73;;;;;;;;;;5007117;28;20057;-65
2023/01/22 07:23:11;;;;;;;1.80;0.90;;;;;;;;;;5033446;28;20065;-65
2023/01/22 07:25:43;;;;;;;2.97;1.10;;;;;;;;;;5040271;28;20061;-65
2023/01/22 07:28:14;;;;;;;6.93;1.17;;;;;;;;;;4997813;28;20050;-64
2023/01/22 07:30:45;;;;;;;4.93;1.10;;;;;;;;;;5029610;28;20433;-68
2023/01/22 07:33:16;;;;;;;3.22;0.93;;;;;;;;;;5050076;28;20079;-67
2023/01/22 07:35:55;;;;;;;5.35;1.10;;;;;;;;;;5026572;28;20444;-65
2023/01/22 07:38:28;;;;;;;4.07;1.10;;;;;;;;;;4956233;28;20052;-64
2023/01/22 07:41:06;;;;;;;3.35;0.98;;;;;;;;;;5069411;28;20049;-67
2023/01/22 07:43:54;;;;;;;3.50;0.98;;;;;;;;;;5069322;28;20045;-67
2023/01/22 07:46:25;;;;;;;3.47;1.42;;;;;;;;;;5049047;28;20064;-68
2023/01/22 07:48:55;;;;;;;4.43;1.25;;;;;;;;;;5049583;28;20060;-67
2023/01/22 07:51:26;;;;;;;6.93;1.17;;;;;;;;;;5016539;28;20052;-65
2023/01/22 07:53:56;;;;;;;1.60;0.95;;;;;;;;;;5029309;28;20063;-65
2023/01/22 07:56:26;;;;;;;3.85;1.40;;;;;;;;;;4996168;28;20084;-67
2023/01/22 07:58:56;;;;;;;2.85;1.35;;;;;;;;;;5028658;28;20046;-67
2023/01/22 08:01:26;;;;;;;4.75;1.27;;;;;;;;;;4996117;28;20045;-67
2023/01/22 08:03:56;;;;;;;4.00;1.10;;;;;;;;;;5029169;28;20698;-67
2023/01/22 08:06:26;;;;;;;4.15;1.30;;;;;;;;;;4996042;28;20053;-67
2023/01/22 08:08:57;;;;;;;2.97;1.23;;;;;;;;;;5009225;28;20053;-69
2023/01/22 08:11:28;;;;;;;3.72;1.30;;;;;;;;;;4976375;28;20181;-67
2023/01/22 08:13:58;;;;;;;3.25;1.33;;;;;;;;;;5008946;28;20054;-67
2023/01/22 08:16:29;;;;;;;3.47;1.58;;;;;;;;;;5009150;28;20053;-68
2023/01/22 08:18:58;;;;;;;4.78;1.45;;;;;;;;;;5008815;28;20057;-68
2023/01/22 08:21:28;;;;;;;5.32;1.40;;;;;;;;;;5008999;28;20101;-67
2023/01/22 08:23:58;;;;;;;5.70;1.60;;;;;;;;;;5027395;28;20551;-67
2023/01/22 08:26:29;;;;;;;3.45;1.63;;;;;;;;;;5048587;28;20517;-67
2023/01/22 08:28:59;;;;;;;4.05;1.52;;;;;;;;;;5015247;28;20060;-68
2023/01/22 08:31:35;;;;;;;2.63;1.45;;;;;;;;;;5058691;28;20060;-69
2023/01/22 08:34:05;;;;;;;4.90;1.50;;;;;;;;;;5035062;28;20053;-67
2023/01/22 08:36:36;;;;;;;6.13;1.65;;;;;;;;;;5068552;28;20044;-67
2023/01/22 08:39:06;;;;;;;6.72;1.70;;;;;;;;;;5034754;28;20055;-66
2023/01/22 08:41:37;;;;;;;3.45;1.55;;;;;;;;;;5048232;28;20056;-66
2023/01/22 08:44:10;;;;;;;4.65;1.50;;;;;;;;;;5048160;28;20057;-66
2023/01/22 08:46:41;;;;;;;4.28;1.52;;;;;;;;;;5028337;28;20050;-67
2023/01/22 08:49:11;;;;;;;3.53;1.60;;;;;;;;;;5028173;28;20054;-67
2023/01/22 08:51:41;;;;;;;4.28;1.50;;;;;;;;;;5011706;28;20050;-68
2023/01/22 08:54:10;;;;;;;5.10;1.88;;;;;;;;;;5028331;28;20552;-67
2023/01/22 08:56:40;;;;;;;5.68;1.70;;;;;;;;;;5028259;28;20061;-66
2023/01/22 08:59:10;;;;;;;5.20;1.50;;;;;;;;;;5028038;28;20058;-66
2023/01/22 09:01:41;;;;;;;3.20;1.40;;;;;;;;;;5028223;28;20053;-67
2023/01/22 09:04:11;;;;;;;4.68;1.70;;;;;;;;;;4995272;28;20092;-65
2023/01/22 09:06:41;;;;;;;2.42;1.27;;;;;;;;;;5011717;28;20061;-66
2023/01/22 09:09:11;;;;;;;3.15;1.30;;;;;;;;;;5011581;28;20510;-65
2023/01/22 09:11:43;;;;;;;5.28;1.52;;;;;;;;;;5030897;28;20154;-64
2023/01/22 09:14:13;;;;;;;4.72;1.88;;;;;;;;;;5031856;28;20049;-64
2023/01/22 09:16:44;;;;;;;4.07;1.70;;;;;;;;;;5032085;28;20060;-64
2023/01/22 09:19:15;;;;;;;5.25;1.98;;;;;;;;;;5042179;28;20061;-64
2023/01/22 09:21:46;;;;;;;3.97;1.35;;;;;;;;;;5052513;28;20075;-63
2023/01/22 09:24:16;;;;;;;3.25;1.50;;;;;;;;;;5048238;28;20051;-64
2023/01/22 09:26:46;;;;;;;3.53;1.23;;;;;;;;;;5071704;28;20563;-66
2023/01/22 09:29:16;;;;;;;3.53;1.63;;;;;;;;;;5038116;28;20063;-67
2023/01/22 09:31:46;;;;;;;4.25;2.00;;;;;;;;;;5021804;28;20052;-66
2023/01/22 09:34:16;;;;;;;7.28;1.60;;;;;;;;;;5018417;28;20049;-66
2023/01/22 09:36:47;;;;;;;4.85;1.60;;;;;;;;;;5051978;28;20053;-65
2023/01/22 09:39:17;;;;;;;4.15;1.77;;;;;;;;;;5017754;28;20516;-65
2023/01/22 09:41:52;;;;;;;3.33;1.40;;;;;;;;;;5003243;28;20057;-65
2023/01/22 09:44:38;;;;;;;7.35;1.88;;;;;;;;;;5035001;28;20053;-66
2023/01/22 09:47:46;;;;;;;4.82;1.40;;;;;;;;;;5019153;28;20057;-67
2023/01/22 09:50:22;;;;;;;4.00;1.48;;;;;;;;;;4959757;28;20062;-65
2023/01/22 09:52:55;;;;;;;7.57;1.70;;;;;;;;;;4992162;28;20061;-65
2023/01/22 09:55:36;;;;;;;5.25;1.40;;;;;;;;;;4959980;28;20062;-64
2023/01/22 09:58:17;;;;;;;2.30;1.30;;;;;;;;;;4975072;28;20046;-64
2023/01/22 10:00:59;;;;;;;2.75;1.40;;;;;;;;;;4976037;28;20050;-62
2023/01/22 10:03:45;;;;;;;3.38;1.17;;;;;;;;;;4994051;28;20700;-64
2023/01/22 10:06:20;;;;;;;6.63;1.50;;;;;;;;;;4962819;28;20058;-65
2023/01/22 10:09:14;;;;;;;4.38;1.40;;;;;;;;;;4946485;28;20046;-66
2023/01/22 10:11:49;;;;;;;5.63;1.50;;;;;;;;;;5019370;28;20054;-64
2023/01/22 10:14:22;;;;;;;5.32;1.75;;;;;;;;;;5031177;28;20053;-66
2023/01/22 10:16:52;;;;;;;6.43;1.40;;;;;;;;;;4998379;28;20062;-66
2023/01/22 10:19:46;;;;;;;3.63;1.30;;;;;;;;;;5030985;28;20064;-65
2023/01/22 10:22:21;;;;;;;1.85;1.10;;;;;;;;;;5013578;28;20060;-66
2023/01/22 10:24:52;;;;;;;2.10;1.00;;;;;;;;;;5003245;28;20057;-66
2023/01/22 10:27:42;;;;;;;17.88;1.40;;;;;;;;;;5045251;28;20066;-66
2023/01/22 10:30:22;;;;;;;2.72;1.00;;;;;;;;;;5060763;28;20400;-65
2023/01/22 10:33:05;;;;;;;2.05;0.65;;;;;;;;;;5078176;28;20503;-64
2023/01/22 10:36:03;;;;;;;7.32;1.10;;;;;;;;;;5111516;28;20070;-65
2023/01/22 10:38:33;;;;;;;;;;;;;;;;;;4998747;28;20841;-64
2023/01/22 10:41:03;;;;;;;3.10;0.80;;;;;;;;;;4997780;28;19928;-64
2023/01/22 10:43:36;;;;;;;2.25;0.80;;;;;;;;;;5030799;28;20053;-64
2023/01/22 10:46:25;;;;;;;1.48;0.70;;;;;;;;;;5030629;28;20054;-64
2023/01/22 10:49:07;;;;;;;2.15;0.47;;;;;;;;;;5010462;28;20098;-63
2023/01/22 10:51:40;;;;;;;0.85;0.52;;;;;;;;;;5010568;28;20057;-64
2023/01/22 10:54:38;;;;;;;0.93;0.43;;;;;;;;;;5010648;28;20584;-65
2023/01/22 10:57:19;;;;;;;0.73;0.50;;;;;;;;;;4978508;28;20057;-64
2023/01/22 10:59:53;;;;;;;1.95;0.57;;;;;;;;;;5010452;28;20089;-64
2023/01/22 11:02:25;;;;;;;2.20;0.40;;;;;;;;;;4963206;28;20054;-64
2023/01/22 11:04:55;;;;;;;;;;;;;;;;;;4962493;28;20060;-66
2023/01/22 11:07:30;;;;;;;1.23;0.32;;;;;;;;;;4961818;28;19921;-64
2023/01/22 11:10:10;;;;;;;1.00;0.40;;;;;;;;;;5010343;28;20085;-63
2023/01/22 11:12:45;;;;;;;0.93;0.43;;;;;;;;;;4990283;28;20046;-64
2023/01/22 11:15:43;;;;;;;0.68;0.40;;;;;;;;;;4990223;28;20045;-65
2023/01/22 11:18:25;;;;;;;3.75;0.60;;;;;;;;;;4997148;28;20054;-64
2023/01/22 11:20:57;;;;;;;1.05;0.30;;;;;;;;;;5013246;28;20096;-65
2023/01/22 11:23:46;;;;;;;3.63;0.45;;;;;;;;;;5029632;28;20060;-65
2023/01/22 11:26:16;;;;;;;0.80;0.38;;;;;;;;;;5045142;28;20064;-65
2023/01/22 11:29:03;;;;;;;1.20;0.40;;;;;;;;;;5053025;28;20053;-65
2023/01/22 11:32:06;;;;;;;1.10;0.60;;;;;;;;;;5049466;28;20053;-66
2023/01/22 11:35:21;;;;;;;1.33;0.60;;;;;;;;;;5049552;28;20080;-65
2023/01/22 11:38:12;;;;;;;1.30;0.70;;;;;;;;;;4970844;28;20087;-65
2023/01/22 11:40:58;;;;;;;1.02;0.40;;;;;;;;;;4954630;28;20051;-65
2023/01/22 11:43:54;;;;;;;0.70;0.40;;;;;;;;;;4970018;28;20046;-64
2023/01/22 11:46:35;;;;;;;1.08;0.52;;;;;;;;;;4938315;28;20577;-65
2023/01/22 11:49:21;;;;;;;2.10;0.50;;;;;;;;;;4970567;28;20046;-65
2023/01/22 11:52:12;;;;;;;1.10;0.40;;;;;;;;;;4932305;29;20407;-65
2023/01/22 11:54:56;;;;;;;1.95;0.50;;;;;;;;;;4931676;29;20058;-65
2023/01/22 11:57:42;;;;;;;0.57;0.30;;;;;;;;;;4931693;29;20047;-64
2023/01/22 12:00:19;;;;;;;2.33;0.80;;;;;;;;;;4934685;29;20060;-64
2023/01/22 12:03:11;;;;;;;1.13;0.50;;;;;;;;;;4951008;29;20055;-64
2023/01/22 12:06:01;;;;;;;1.10;0.50;;;;;;;;;;4951252;29;20051;-64
2023/01/22 12:09:05;;;;;;;1.75;0.88;;;;;;;;;;4958537;28;20109;-65
2023/01/22 12:12:16;;;;;;;140.35;55.95;;;;;;;;;;4989546;28;20054;-65
2023/01/22 12:15:21;;;;;;;11.25;6.75;;;;;;;;;;5016725;28;20057;-65
2023/01/22 12:18:32;;;;;;;43.80;21.55;;;;;;;;;;5012195;28;20087;-64
2023/01/22 12:21:36;;;;;;;11.27;5.13;;;;;;;;;;5012563;28;20528;-65
2023/01/22 12:24:14;;;;;;;8.95;4.35;;;;;;;;;;4995726;28;20635;-65
2023/01/22 12:27:13;;;;;;;4.20;1.30;;;;;;;;;;4995992;28;20054;-65
2023/01/22 12:29:54;;;;;;;4.75;1.20;;;;;;;;;;4995466;28;20056;-66
2023/01/22 12:32:27;;;;;;;1.42;0.68;;;;;;;;;;4948575;28;20045;-65
2023/01/22 12:35:05;;;;;;;1.42;0.68;;;;;;;;;;4979896;28;20061;-64
2023/01/22 12:37:38;;;;;;;1.95;0.77;;;;;;;;;;4979691;28;20053;-65
2023/01/22 12:40:47;;;;;;;3.17;1.27;;;;;;;;;;4979575;28;20061;-65
2023/01/22 12:43:22;;;;;;;1.08;0.52;;;;;;;;;;5028228;28;20057;-65
2023/01/22 12:46:20;;;;;;;1.58;1.38;;;;;;;;;;4981335;28;20046;-65
2023/01/22 12:49:08;;;;;;;3.13;0.70;;;;;;;;;;4979239;28;20541;-67
2023/01/22 12:51:50;;;;;;;3.38;0.60;;;;;;;;;;5028246;28;20064;-65
2023/01/22 12:54:21;;;;;;;1.98;0.75;;;;;;;;;;5017000;28;20059;-65
2023/01/22 12:57:08;;;;;;;2.45;0.60;;;;;;;;;;5075965;28;20060;-65
2023/01/22 12:59:38;;;;;;;0.95;0.50;;;;;;;;;;5111127;28;20055;-65
2023/01/22 13:02:24;;;;;;;1.77;0.50;;;;;;;;;;5041734;28;20058;-66
2023/01/22 13:04:56;;;;;;;1.20;0.60;;;;;;;;;;5111343;28;20036;-65
2023/01/22 13:07:29;;;;;;;3.35;0.70;;;;;;;;;;5111243;28;20043;-65
2023/01/22 13:10:20;;;;;;;2.88;0.60;;;;;;;;;;5110807;28;20047;-65
2023/01/22 13:12:53;;;;;;;1.60;0.80;;;;;;;;;;5110985;28;20047;-65
2023/01/22 13:15:27;;;;;;;2.15;0.50;;;;;;;;;;5075483;28;20483;-65
2023/01/22 13:18:00;;;;;;;1.30;0.73;;;;;;;;;;5110624;28;20051;-65
2023/01/22 13:20:47;;;;;;;1.10;0.70;;;;;;;;;;5075153;28;20066;-67
2023/01/22 13:23:18;;;;;;;1.85;0.70;;;;;;;;;;5110877;28;20039;-65
2023/01/22 13:25:57;;;;;;;1.23;0.60;;;;;;;;;;5075176;28;20060;-66
2023/01/22 13:28:28;;;;;;;9.02;0.82;;;;;;;;;;5110509;28;20043;-66
2023/01/22 13:31:09;;;;;;;2.80;0.77;;;;;;;;;;5075007;28;20066;-65
2023/01/22 13:33:40;;;;;;;1.02;0.60;;;;;;;;;;5091752;28;20495;-65
2023/01/22 13:36:13;;;;;;;5.15;0.55;;;;;;;;;;5110855;28;20053;-65
2023/01/22 13:38:54;;;;;;;1.05;0.50;;;;;;;;;;5074715;28;20051;-66
2023/01/22 13:41:37;;;;;;;2.05;0.60;;;;;;;;;;5041213;28;21144;-65
2023/01/22 13:44:17;;;;;;;2.97;0.55;;;;;;;;;;5075086;28;20056;-65
2023/01/22 13:46:48;;;;;;;0.77;0.50;;;;;;;;;;5091476;28;20048;-66
2023/01/22 13:49:34;;;;;;;1.17;0.50;;;;;;;;;;5091615;28;20051;-65
2023/01/22 13:52:07;;;;;;;0.70;0.50;;;;;;;;;;5047441;28;20060;-65
2023/01/22 13:54:44;;;;;;;2.03;0.50;;;;;;;;;;5030778;28;20424;-66
2023/01/22 13:57:18;;;;;;;1.17;0.40;;;;;;;;;;5049670;28;20173;-66
2023/01/22 13:59:56;;;;;;;0.50;0.40;;;;;;;;;;5020189;28;20568;-66
2023/01/22 14:02:29;;;;;;;0.55;0.43;;;;;;;;;;5034541;28;20045;-66
2023/01/22 14:05:00;;;;;;;1.52;0.55;;;;;;;;;;4969516;28;20638;-66
2023/01/22 14:07:34;;;;;;;1.45;0.55;;;;;;;;;;5051206;28;20052;-67
2023/01/22 14:10:22;;;;;;;0.65;0.55;;;;;;;;;;5050979;28;20394;-66
2023/01/22 14:13:09;;;;;;;0.95;0.40;;;;;;;;;;5051101;28;20052;-66
2023/01/22 14:15:41;;;;;;;1.80;0.68;;;;;;;;;;5034434;28;20104;-66
2023/01/22 14:18:13;;;;;;;2.38;0.50;;;;;;;;;;5017813;28;20049;-66
2023/01/22 14:20:45;;;;;;;1.02;0.60;;;;;;;;;;5001396;28;20053;-66
2023/01/22 14:23:15;;;;;;;2.45;0.52;;;;;;;;;;5050935;28;20057;-66
2023/01/22 14:25:48;;;;;;;3.63;0.75;;;;;;;;;;4978740;28;20046;-67
2023/01/22 14:28:20;;;;;;;0.93;0.50;;;;;;;;;;5030620;28;20079;-66
2023/01/22 14:30:50;;;;;;;3.00;0.80;;;;;;;;;;4950654;28;20509;-66
2023/01/22 14:33:24;;;;;;;0.93;0.50;;;;;;;;;;5030512;28;20057;-67
2023/01/22 14:35:55;;;;;;;1.17;0.52;;;;;;;;;;5030548;28;20049;-67
2023/01/22 14:38:26;;;;;;;1.60;0.50;;;;;;;;;;5030757;28;20054;-67
2023/01/22 14:40:56;;;;;;;1.73;0.65;;;;;;;;;;5013979;28;20064;-66
2023/01/22 14:43:26;;;;;;;1.35;0.68;;;;;;;;;;4981438;28;20061;-66
2023/01/22 14:45:56;;;;;;;1.67;0.60;;;;;;;;;;4997677;28;20061;-67
2023/01/22 14:48:26;;;;;;;1.38;0.90;;;;;;;;;;5014302;28;20053;-70
2023/01/22 14:50:56;;;;;;;1.38;0.70;;;;;;;;;;5030324;28;20238;-67
2023/01/22 14:53:29;;;;;;;2.15;0.60;;;;;;;;;;5030147;28;20078;-68
2023/01/22 14:55:59;;;;;;;1.00;0.50;;;;;;;;;;5030210;28;20541;-66
2023/01/22 14:58:30;;;;;;;1.45;0.80;;;;;;;;;;5030481;28;20075;-66
2023/01/22 15:01:00;;;;;;;2.17;0.60;;;;;;;;;;5030216;28;20064;-66
2023/01/22 15:03:30;;;;;;;1.27;0.57;;;;;;;;;;5062759;28;20056;-67
2023/01/22 15:06:00;;;;;;;1.15;0.50;;;;;;;;;;5102282;28;20064;-68
2023/01/22 15:08:30;;;;;;;1.77;0.70;;;;;;;;;;5112639;28;20048;-66
2023/01/22 15:11:00;;;;;;;2.47;0.60;;;;;;;;;;5069479;28;20044;-68
2023/01/22 15:13:31;;;;;;;2.70;0.90;;;;;;;;;;5070115;28;20408;-66
2023/01/22 15:16:04;;;;;;;1.15;0.60;;;;;;;;;;5070076;28;20060;-69
2023/01/22 15:18:35;;;;;;;2.47;0.70;;;;;;;;;;5069876;28;20058;-67
2023/01/22 15:21:06;;;;;;;2.63;1.00;;;;;;;;;;5069424;28;20385;-66
2023/01/22 15:23:37;;;;;;;0.95;0.60;;;;;;;;;;5069916;28;20057;-69
2023/01/22 15:26:21;;;;;;;2.22;0.65;;;;;;;;;;5036546;28;20540;-66
2023/01/22 15:28:52;;;;;;;1.88;0.68;;;;;;;;;;5069360;28;20056;-67
2023/01/22 15:31:23;;;;;;;1.38;0.50;;;;;;;;;;5069809;28;20515;-66
2023/01/22 15:33:53;;;;;;;1.02;0.65;;;;;;;;;;5069500;28;20052;-68
2023/01/22 15:36:23;;;;;;;3.55;0.70;;;;;;;;;;5069500;28;20051;-67
2023/01/22 15:38:53;;;;;;;1.15;0.70;;;;;;;;;;5069596;28;20052;-67